createdAt,value
2023-04-21T00:00:08.911Z,66.60
2023-04-21T00:02:56.095Z,1.00
2023-04-21T00:05:23.686Z,1.00
2023-04-21T00:07:50.653Z,99.90
2023-04-21T00:10:18.330Z,99.90
2023-04-21T00:12:45.252Z,99.90
2023-04-21T00:15:12.804Z,99.90
2023-04-21T00:17:40.925Z,99.90
2023-04-21T00:20:10.684Z,99.90
2023-04-21T00:22:37.853Z,99.90
2023-04-21T00:25:05.983Z,99.90
2023-04-21T00:27:32.992Z,99.90
2023-04-21T00:30:00.286Z,1.00
2023-04-21T00:32:27.287Z,99.90
2023-04-21T00:34:54.627Z,1.00
2023-04-21T00:37:21.591Z,99.90
2023-04-21T00:39:48.802Z,90.10
2023-04-21T00:42:17.204Z,99.90
2023-04-21T00:44:44.465Z,1.00
2023-04-21T00:47:11.708Z,99.90
2023-04-21T00:49:39.206Z,99.90
2023-04-21T00:52:06.675Z,99.90
2023-04-21T00:54:35.894Z,86.90
2023-04-21T00:57:03.795Z,63.60
2023-04-21T00:59:31.485Z,85.00
2023-04-21T01:01:58.637Z,99.90
2023-04-21T01:04:26.060Z,99.90
2023-04-21T01:06:53.061Z,1.00
2023-04-21T01:09:21.713Z,1.00
2023-04-21T01:12:05.834Z,99.90
2023-04-21T01:14:33.184Z,99.90
2023-04-21T01:17:00.451Z,99.90
2023-04-21T01:19:32.502Z,99.90
2023-04-21T01:22:00.987Z,99.90
2023-04-21T01:24:42.869Z,99.90
2023-04-21T01:27:12.017Z,1.00
2023-04-21T01:29:41.506Z,48.30
2023-04-21T01:32:11.581Z,98.10
2023-04-21T01:34:40.599Z,99.90
2023-04-21T01:37:09.698Z,1.00
2023-04-21T01:39:41.652Z,1.00
2023-04-21T01:42:09.150Z,1.00
2023-04-21T01:44:37.054Z,80.10
2023-04-21T01:47:06.170Z,99.90
2023-04-21T01:49:33.430Z,99.90
2023-04-21T01:52:00.572Z,99.90
2023-04-21T01:54:27.858Z,99.90
2023-04-21T01:56:54.882Z,1.00
2023-04-21T01:59:22.425Z,1.00
2023-04-21T02:01:50.054Z,1.00
2023-04-21T02:04:17.650Z,1.00
2023-04-21T02:06:44.895Z,93.50
2023-04-21T02:09:12.097Z,99.90
2023-04-21T02:11:39.034Z,99.90
2023-04-21T02:14:06.300Z,99.90
2023-04-21T02:16:33.348Z,99.90
2023-04-21T02:19:00.698Z,99.90
2023-04-21T02:21:28.125Z,99.90
2023-04-21T02:23:55.584Z,99.90
2023-04-21T02:26:22.538Z,99.90
2023-04-21T02:28:50.414Z,99.90
2023-04-21T02:31:18.855Z,99.90
2023-04-21T02:33:46.392Z,99.90
2023-04-21T02:36:13.792Z,99.90
2023-04-21T02:38:41.329Z,99.90
2023-04-21T02:41:08.426Z,99.90
2023-04-21T02:43:35.923Z,99.90
2023-04-21T02:46:09.473Z,99.90
2023-04-21T02:48:37.053Z,99.90
2023-04-21T02:51:04.818Z,99.90
2023-04-21T02:53:32.321Z,99.90
2023-04-21T02:55:59.485Z,99.90
2023-04-21T02:58:26.798Z,99.90
2023-04-21T03:00:53.789Z,99.90
2023-04-21T03:03:21.845Z,99.90
2023-04-21T03:05:48.950Z,99.90
2023-04-21T03:08:16.670Z,99.90
2023-04-21T03:10:43.771Z,99.90
2023-04-21T03:13:11.078Z,99.90
2023-04-21T03:15:38.045Z,99.90
2023-04-21T03:18:05.397Z,99.90
2023-04-21T03:20:32.416Z,99.90
2023-04-21T03:22:59.697Z,99.90
2023-04-21T03:25:27.876Z,99.90
2023-04-21T03:27:55.529Z,99.90
2023-04-21T03:30:25.690Z,99.90
2023-04-21T03:32:53.379Z,99.90
2023-04-21T03:35:20.472Z,99.90
2023-04-21T03:37:49.679Z,99.90
2023-04-21T03:40:17.031Z,99.90
2023-04-21T03:42:44.337Z,99.90
2023-04-21T03:45:11.516Z,99.90
2023-04-21T03:47:38.949Z,99.90
2023-04-21T03:50:06.716Z,99.90
2023-04-21T03:52:34.161Z,99.90
2023-04-21T03:55:01.549Z,99.90
2023-04-21T03:57:29.106Z,99.90
2023-04-21T03:59:56.103Z,99.90
2023-04-21T04:02:23.726Z,99.90
2023-04-21T04:04:51.133Z,99.90
2023-04-21T04:07:18.633Z,99.90
2023-04-21T04:09:45.710Z,99.90
2023-04-21T04:12:12.998Z,99.90
2023-04-21T04:14:40.056Z,99.90
2023-04-21T04:17:07.539Z,99.90
2023-04-21T04:19:34.546Z,99.90
2023-04-21T04:22:01.869Z,99.90
2023-04-21T04:24:29.688Z,99.90
2023-04-21T04:26:58.163Z,99.90
2023-04-21T04:29:25.655Z,99.90
2023-04-21T04:31:53.033Z,99.90
2023-04-21T04:34:20.060Z,99.90
2023-04-21T04:36:48.274Z,99.90
2023-04-21T04:39:16.498Z,99.90
2023-04-21T04:41:44.123Z,99.90
2023-04-21T04:44:11.343Z,99.90
2023-04-21T04:46:39.478Z,99.90
2023-04-21T04:49:06.697Z,99.90
2023-04-21T04:51:33.948Z,99.90
2023-04-21T04:54:01.155Z,99.90
2023-04-21T04:56:30.483Z,99.90
2023-04-21T04:58:57.465Z,99.90
2023-04-21T05:01:30.343Z,99.90
2023-04-21T05:03:58.129Z,99.90
2023-04-21T05:06:26.105Z,99.90
2023-04-21T05:08:53.149Z,99.90
2023-04-21T05:11:20.708Z,99.90
2023-04-21T05:13:47.642Z,99.90
2023-04-21T05:16:15.071Z,99.90
2023-04-21T05:18:42.133Z,99.90
2023-04-21T05:21:09.440Z,99.90
2023-04-21T05:23:36.559Z,99.90
2023-04-21T05:26:04.623Z,99.90
2023-04-21T05:28:32.244Z,99.90
2023-04-21T05:30:59.459Z,99.90
2023-04-21T05:33:27.030Z,99.90
2023-04-21T05:35:54.382Z,99.90
2023-04-21T05:38:21.304Z,99.90
2023-04-21T05:40:55.888Z,99.90
2023-04-21T05:43:23.287Z,99.90
2023-04-21T05:45:50.649Z,99.90
2023-04-21T05:48:17.716Z,99.90
2023-04-21T05:50:45.057Z,99.90
2023-04-21T05:53:12.165Z,99.90
2023-04-21T05:55:39.508Z,99.90
2023-04-21T05:58:06.560Z,99.90
2023-04-21T06:00:34.401Z,99.90
2023-04-21T06:03:01.630Z,99.90
2023-04-21T06:05:29.206Z,99.90
2023-04-21T06:07:56.215Z,99.90
2023-04-21T06:10:23.549Z,99.90
2023-04-21T06:12:50.591Z,99.90
2023-04-21T06:15:18.204Z,99.90
2023-04-21T06:17:45.344Z,98.60
2023-04-21T06:20:12.950Z,97.60
2023-04-21T06:22:40.040Z,96.90
2023-04-21T06:25:07.720Z,95.00
2023-04-21T06:27:34.718Z,94.50
2023-04-21T06:30:02.365Z,95.00
2023-04-21T06:32:29.675Z,93.80
2023-04-21T06:34:57.160Z,91.20
2023-04-21T06:37:24.115Z,90.70
2023-04-21T06:39:51.421Z,90.10
2023-04-21T06:42:18.466Z,89.40
2023-04-21T06:44:46.694Z,88.20
2023-04-21T06:47:16.966Z,86.00
2023-04-21T06:49:44.260Z,87.00
2023-04-21T06:52:13.946Z,84.60
2023-04-21T06:54:41.426Z,85.00
2023-04-21T06:57:08.442Z,86.00
2023-04-21T06:59:35.692Z,81.40
2023-04-21T07:02:02.848Z,81.00
2023-04-21T07:04:32.405Z,80.80
2023-04-21T07:07:01.668Z,76.00
2023-04-21T07:09:30.912Z,76.30
2023-04-21T07:11:58.716Z,71.20
2023-04-21T07:14:26.172Z,70.50
2023-04-21T07:16:53.355Z,71.10
2023-04-21T07:19:20.894Z,71.60
2023-04-21T07:24:16.035Z,64.70
2023-04-21T07:26:42.980Z,64.80
2023-04-21T07:29:10.209Z,63.80
2023-04-21T07:31:37.351Z,61.40
2023-04-21T07:34:04.640Z,62.00
2023-04-21T07:36:31.741Z,62.70
2023-04-21T07:38:59.484Z,60.30
2023-04-21T07:41:26.449Z,57.50
2023-04-21T07:43:53.939Z,55.80
2023-04-21T07:46:22.950Z,58.10
2023-04-21T07:48:50.961Z,57.40
2023-04-21T07:51:18.108Z,55.60
2023-04-21T07:53:45.439Z,58.50
2023-04-21T07:56:13.150Z,57.40
2023-04-21T07:58:40.710Z,57.30
2023-04-21T08:01:07.765Z,59.00
2023-04-21T08:03:35.089Z,56.90
2023-04-21T08:06:02.677Z,56.10
2023-04-21T08:08:31.954Z,58.60
2023-04-21T08:10:59.147Z,55.80
2023-04-21T08:13:26.698Z,53.60
2023-04-21T08:15:53.860Z,55.10
2023-04-21T08:18:22.752Z,53.10
2023-04-21T08:20:50.028Z,53.60
2023-04-21T08:23:17.387Z,57.10
2023-04-21T08:25:44.409Z,53.70
2023-04-21T08:28:11.792Z,51.90
2023-04-21T08:30:39.367Z,51.60
2023-04-21T08:33:08.581Z,50.20
2023-04-21T08:35:36.493Z,48.60
2023-04-21T08:38:03.895Z,48.70
2023-04-21T08:40:35.928Z,47.20
2023-04-21T08:43:04.346Z,48.30
2023-04-21T08:45:32.112Z,45.40
2023-04-21T08:48:01.651Z,48.00
2023-04-21T08:50:30.088Z,44.70
2023-04-21T08:52:58.212Z,45.10
2023-04-21T08:55:32.707Z,45.10
2023-04-21T08:58:00.046Z,43.80
2023-04-21T09:00:27.011Z,42.60
2023-04-21T09:03:01.749Z,42.30
2023-04-21T09:05:31.899Z,42.90
2023-04-21T09:08:09.451Z,42.00
2023-04-21T09:10:50.562Z,43.10
2023-04-21T09:13:20.287Z,41.60
2023-04-21T09:15:50.718Z,44.30
2023-04-21T09:18:23.660Z,41.90
2023-04-21T09:21:06.432Z,44.00
2023-04-21T09:23:50.362Z,41.70
2023-04-21T09:26:19.658Z,42.60
2023-04-21T09:28:48.759Z,42.20
2023-04-21T09:31:20.269Z,40.50
2023-04-21T09:36:22.370Z,40.10
2023-04-21T09:39:12.968Z,41.40
2023-04-21T09:41:44.292Z,40.10
2023-04-21T09:44:12.146Z,40.20
2023-04-21T09:46:43.632Z,38.90
2023-04-21T09:49:13.804Z,38.10
2023-04-21T09:56:53.039Z,45.30
2023-04-21T09:59:25.199Z,45.80
2023-04-21T10:01:53.939Z,52.00
2023-04-21T10:04:25.280Z,53.30
2023-04-21T10:06:53.453Z,53.50
2023-04-21T10:09:24.000Z,53.90
2023-04-21T10:11:53.080Z,52.70
2023-04-21T10:14:21.127Z,53.60
2023-04-21T10:17:03.401Z,51.50
2023-04-21T10:19:35.628Z,52.40
2023-04-21T10:22:02.701Z,53.90
2023-04-21T10:24:31.267Z,55.00
2023-04-21T10:27:04.659Z,55.80
2023-04-21T10:29:47.917Z,56.30
2023-04-21T10:32:48.416Z,52.90
2023-04-21T10:35:22.856Z,58.60
2023-04-21T10:37:52.063Z,55.90
2023-04-21T10:40:43.157Z,54.40
2023-04-21T10:43:46.595Z,54.90
2023-04-21T10:46:38.987Z,54.90
2023-04-21T10:49:10.774Z,54.80
2023-04-21T10:52:00.161Z,60.20
2023-04-21T10:54:29.618Z,54.10
2023-04-21T10:56:58.924Z,55.80
2023-04-21T10:59:27.180Z,56.70
2023-04-21T11:01:55.237Z,54.50
2023-04-21T11:04:23.479Z,55.30
2023-04-21T11:07:16.994Z,58.60
2023-04-21T11:09:46.405Z,58.00
2023-04-21T11:12:18.434Z,55.40
2023-04-21T11:14:48.251Z,56.80
2023-04-21T11:17:18.107Z,55.30
2023-04-21T11:19:54.268Z,57.90
2023-04-21T11:22:23.843Z,55.80
2023-04-21T11:24:56.169Z,56.30
2023-04-21T11:27:26.036Z,54.40
2023-04-21T11:29:53.008Z,54.50
2023-04-21T11:32:21.222Z,54.40
2023-04-21T11:34:48.379Z,55.60
2023-04-21T11:37:22.094Z,55.60
2023-04-21T11:39:49.137Z,55.50
2023-04-21T11:42:22.893Z,54.70
2023-04-21T11:44:49.990Z,53.50
2023-04-21T11:47:24.718Z,54.10
2023-04-21T11:49:57.245Z,56.00
2023-04-21T11:52:29.628Z,54.60
2023-04-21T11:55:05.389Z,57.90
2023-04-21T11:57:33.802Z,53.60
2023-04-21T12:00:02.671Z,54.30
2023-04-21T12:02:31.815Z,56.30
2023-04-21T12:05:10.622Z,55.30
2023-04-21T12:07:42.158Z,56.70
2023-04-21T12:10:18.185Z,56.10
2023-04-21T12:12:46.458Z,53.30
2023-04-21T12:15:20.284Z,56.50
2023-04-21T12:17:50.949Z,56.20
2023-04-21T12:20:31.061Z,55.00
2023-04-21T12:22:58.712Z,55.40
2023-04-21T12:25:26.353Z,54.90
2023-04-21T12:27:58.658Z,58.00
2023-04-21T12:30:25.895Z,55.40
2023-04-21T12:32:55.909Z,57.70
2023-04-21T12:35:23.825Z,57.40
2023-04-21T12:37:52.050Z,55.70
2023-04-21T12:40:19.613Z,58.10
2023-04-21T12:42:48.695Z,54.00
2023-04-21T12:45:15.886Z,56.20
2023-04-21T12:47:45.539Z,56.60
2023-04-21T12:50:14.293Z,56.80
2023-04-21T12:52:41.838Z,51.90
2023-04-21T12:55:09.337Z,56.80
2023-04-21T12:57:36.905Z,56.80
2023-04-21T13:00:04.455Z,53.90
2023-04-21T13:02:37.299Z,58.00
2023-04-21T13:05:07.515Z,56.70
2023-04-21T13:07:34.828Z,59.30
2023-04-21T13:10:02.847Z,55.80
2023-04-21T13:12:30.513Z,58.10
2023-04-21T13:14:57.477Z,56.20
2023-04-21T13:17:24.975Z,55.60
2023-04-21T13:19:53.172Z,56.70
2023-04-21T13:22:20.823Z,53.20
2023-04-21T13:24:48.105Z,58.40
2023-04-21T13:27:15.412Z,55.30
2023-04-21T13:29:42.616Z,60.40
2023-04-21T13:32:10.332Z,56.60
2023-04-21T13:34:37.424Z,58.10
2023-04-21T13:37:05.273Z,57.20
2023-04-21T13:39:32.535Z,57.00
2023-04-21T13:42:01.601Z,56.40
2023-04-21T13:44:28.951Z,57.00
2023-04-21T13:46:57.442Z,53.20
2023-04-21T13:49:24.553Z,53.40
2023-04-21T13:51:51.766Z,55.70
2023-04-21T13:54:19.109Z,56.30
2023-04-21T13:56:46.592Z,56.60
2023-04-21T13:59:14.955Z,55.40
2023-04-21T14:01:42.769Z,54.60
2023-04-21T14:04:10.106Z,53.80
2023-04-21T14:06:38.525Z,57.80
2023-04-21T14:09:06.466Z,53.30
2023-04-21T14:11:34.262Z,54.20
2023-04-21T14:14:09.437Z,52.60
2023-04-21T14:16:38.355Z,54.00
2023-04-21T14:19:06.217Z,51.40
2023-04-21T14:21:33.962Z,53.20
2023-04-21T14:24:01.063Z,55.60
2023-04-21T14:26:28.789Z,53.90
2023-04-21T14:28:56.561Z,51.80
2023-04-21T14:31:24.110Z,48.30
2023-04-21T14:33:51.145Z,49.00
2023-04-21T14:36:18.822Z,44.70
2023-04-21T14:38:45.914Z,46.40
2023-04-21T14:41:13.446Z,44.10
2023-04-21T14:43:40.518Z,46.40
2023-04-21T14:46:10.513Z,45.60
2023-04-21T14:48:37.590Z,46.50
2023-04-21T14:51:09.292Z,46.70
2023-04-21T14:53:36.425Z,45.60
2023-04-21T14:56:03.963Z,47.80
2023-04-21T14:58:31.006Z,45.30
2023-04-21T15:00:58.549Z,48.00
2023-04-21T15:03:26.396Z,49.50
2023-04-21T15:05:54.122Z,50.90
2023-04-21T15:08:21.227Z,50.30
2023-04-21T15:10:48.662Z,52.30
2023-04-21T15:13:15.724Z,54.80
2023-04-21T15:15:43.233Z,55.00
2023-04-21T15:18:10.293Z,52.00
2023-04-21T15:20:44.712Z,56.60
2023-04-21T15:23:13.345Z,54.20
2023-04-21T15:25:40.934Z,56.60
2023-04-21T15:28:08.782Z,53.20
2023-04-21T15:30:36.491Z,57.00
2023-04-21T15:33:03.638Z,54.30
2023-04-21T15:35:31.345Z,58.70
2023-04-21T15:37:58.394Z,55.50
2023-04-21T15:40:26.084Z,55.60
2023-04-21T15:42:53.220Z,57.90
2023-04-21T15:45:20.888Z,57.60
2023-04-21T15:47:47.941Z,58.90
2023-04-21T15:50:16.026Z,57.80
2023-04-21T15:52:43.566Z,59.20
2023-04-21T15:55:12.145Z,60.50
2023-04-21T15:57:39.230Z,60.90
2023-04-21T16:00:10.279Z,60.10
2023-04-21T16:02:37.770Z,57.70
2023-04-21T16:05:06.279Z,59.70
2023-04-21T16:07:33.662Z,61.50
2023-04-21T16:10:01.127Z,62.10
2023-04-21T16:12:28.670Z,64.70
2023-04-21T16:15:04.015Z,63.30
2023-04-21T16:17:36.868Z,62.00
2023-04-21T16:20:05.656Z,62.90
2023-04-21T16:22:32.746Z,62.70
2023-04-21T16:25:00.731Z,62.10
2023-04-21T16:27:27.967Z,62.80
2023-04-21T16:29:55.370Z,63.60
2023-04-21T16:32:22.512Z,62.80
2023-04-21T16:34:50.264Z,62.30
2023-04-21T16:37:17.706Z,64.20
2023-04-21T16:39:46.111Z,64.40
2023-04-21T16:42:13.317Z,66.10
2023-04-21T16:44:41.110Z,66.00
2023-04-21T16:47:08.355Z,66.40
2023-04-21T16:49:35.722Z,67.30
2023-04-21T16:52:02.824Z,67.60
2023-04-21T16:54:30.446Z,68.30
2023-04-21T16:56:57.680Z,69.40
2023-04-21T16:59:25.154Z,70.10
2023-04-21T17:01:52.383Z,70.00
2023-04-21T17:04:19.789Z,70.50
2023-04-21T17:06:48.299Z,71.20
2023-04-21T17:09:16.153Z,71.50
2023-04-21T17:11:43.864Z,72.10
2023-04-21T17:14:12.677Z,72.80
2023-04-21T17:16:40.343Z,74.10
2023-04-21T17:19:07.998Z,74.80
2023-04-21T17:21:35.114Z,75.20
2023-04-21T17:24:02.328Z,75.60
2023-04-21T17:26:29.344Z,74.60
2023-04-21T17:28:57.549Z,74.80
2023-04-21T17:31:24.678Z,76.40
2023-04-21T17:33:53.323Z,77.70
2023-04-21T17:36:20.572Z,78.60
2023-04-21T17:38:47.871Z,78.60
2023-04-21T17:41:14.845Z,78.90
2023-04-21T17:43:42.210Z,79.90
2023-04-21T17:46:09.270Z,80.40
2023-04-21T17:48:37.641Z,80.50
2023-04-21T17:51:05.765Z,80.50
2023-04-21T17:53:33.089Z,81.00
2023-04-21T17:56:00.156Z,80.70
2023-04-21T17:58:27.743Z,80.50
2023-04-21T18:00:55.135Z,81.20
2023-04-21T18:03:22.937Z,80.80
2023-04-21T18:05:50.493Z,81.10
2023-04-21T18:08:17.875Z,81.40
2023-04-21T18:10:44.882Z,82.60
2023-04-21T18:13:12.190Z,84.40
2023-04-21T18:15:39.903Z,85.10
2023-04-21T18:18:07.931Z,84.20
2023-04-21T18:20:35.220Z,83.60
2023-04-21T18:23:03.051Z,83.30
2023-04-21T18:25:41.543Z,83.00
2023-04-21T18:28:14.326Z,82.90
2023-04-21T18:30:41.834Z,83.00
2023-04-21T18:33:12.192Z,81.80
2023-04-21T18:35:41.265Z,81.20
2023-04-21T18:38:10.564Z,80.10
2023-04-21T18:40:37.942Z,79.50
2023-04-21T18:43:05.593Z,79.20
2023-04-21T18:45:33.949Z,79.50
2023-04-21T18:48:01.841Z,80.90
2023-04-21T18:50:29.402Z,80.60
2023-04-21T18:52:58.312Z,79.40
2023-04-21T18:55:25.307Z,79.40
2023-04-21T18:57:52.610Z,78.60
2023-04-21T19:00:19.866Z,78.60
2023-04-21T19:02:49.070Z,78.50
2023-04-21T19:05:16.397Z,80.70
2023-04-21T19:07:44.065Z,81.30
2023-04-21T19:10:11.184Z,82.40
2023-04-21T19:12:38.793Z,82.80
2023-04-21T19:15:06.378Z,83.20
2023-04-21T19:17:33.652Z,83.70
2023-04-21T19:20:00.684Z,84.20
2023-04-21T19:22:31.071Z,84.70
2023-04-21T19:24:58.229Z,85.30
2023-04-21T19:27:25.587Z,87.40
2023-04-21T19:29:52.603Z,86.60
2023-04-21T19:32:20.001Z,85.30
2023-04-21T19:34:47.091Z,86.00
2023-04-21T19:37:15.020Z,89.50
2023-04-21T19:39:42.160Z,90.50
2023-04-21T19:42:09.662Z,91.00
2023-04-21T19:44:38.157Z,90.40
2023-04-21T19:47:06.051Z,88.00
2023-04-21T19:49:33.052Z,88.50
2023-04-21T19:52:00.915Z,85.50
2023-04-21T19:54:27.856Z,86.00
2023-04-21T19:56:55.654Z,88.20
2023-04-21T19:59:22.701Z,88.70
2023-04-21T20:01:50.004Z,91.30
2023-04-21T20:04:17.294Z,91.80
2023-04-21T20:06:44.885Z,92.50
2023-04-21T20:09:12.198Z,93.00
2023-04-21T20:11:39.509Z,92.80
2023-04-21T20:14:06.483Z,93.70
2023-04-21T20:16:34.523Z,95.30
2023-04-21T20:19:01.736Z,96.40
2023-04-21T20:21:29.107Z,98.10
2023-04-21T20:23:56.182Z,99.90
2023-04-21T20:26:23.438Z,99.90
2023-04-21T20:28:50.640Z,99.90
2023-04-21T20:31:19.103Z,99.90
2023-04-21T20:33:46.284Z,99.90
2023-04-21T20:36:13.534Z,99.90
2023-04-21T20:38:40.622Z,99.90
2023-04-21T20:41:08.890Z,99.90
2023-04-21T20:43:35.883Z,99.90
2023-04-21T20:46:03.482Z,98.90
2023-04-21T20:48:30.692Z,97.90
2023-04-21T20:50:57.994Z,98.30
2023-04-21T20:53:26.208Z,97.80
2023-04-21T20:55:53.500Z,97.50
2023-04-21T20:58:20.641Z,97.40
2023-04-21T21:00:47.933Z,97.40
2023-04-21T21:03:15.145Z,97.90
2023-04-21T21:05:42.580Z,98.00
2023-04-21T21:08:09.693Z,97.60
2023-04-21T21:10:37.301Z,98.30
2023-04-21T21:13:04.294Z,98.20
2023-04-21T21:15:31.664Z,98.00
2023-04-21T21:17:58.889Z,98.10
2023-04-21T21:20:26.259Z,98.20
2023-04-21T21:22:53.381Z,98.40
2023-04-21T21:25:21.139Z,98.70
2023-04-21T21:27:48.251Z,99.10
2023-04-21T21:30:15.620Z,99.80
2023-04-21T21:32:42.719Z,99.90
2023-04-21T21:35:10.433Z,99.90
2023-04-21T21:37:38.215Z,99.90
2023-04-21T21:40:06.591Z,99.90
2023-04-21T21:42:33.573Z,99.90
2023-04-21T21:45:01.126Z,99.90
2023-04-21T21:47:28.313Z,99.90
2023-04-21T21:49:58.673Z,99.90
2023-04-21T21:52:26.601Z,99.90
2023-04-21T21:54:54.057Z,99.90
2023-04-21T21:57:24.487Z,99.90
2023-04-21T21:59:51.844Z,99.90
2023-04-21T22:02:18.877Z,99.90
2023-04-21T22:04:46.324Z,99.90
2023-04-21T22:07:14.000Z,99.90
2023-04-21T22:09:41.668Z,99.90
2023-04-21T22:12:09.017Z,99.90
2023-04-21T22:14:36.726Z,99.90
2023-04-21T22:17:03.730Z,99.90
2023-04-21T22:19:31.188Z,99.90
2023-04-21T22:21:58.384Z,99.90
2023-04-21T22:24:25.962Z,99.90
2023-04-21T22:26:53.315Z,99.90
2023-04-21T22:29:21.285Z,99.90
2023-04-21T22:31:48.578Z,99.90
2023-04-21T22:34:16.879Z,99.90
2023-04-21T22:36:43.864Z,99.90
2023-04-21T22:39:11.748Z,99.90
2023-04-21T22:41:39.277Z,99.90
2023-04-21T22:44:06.583Z,99.90
2023-04-21T22:46:33.936Z,99.90
2023-04-21T22:49:02.710Z,99.90
2023-04-21T22:51:32.525Z,99.90
2023-04-21T22:54:00.616Z,99.90
2023-04-21T22:56:28.423Z,99.90
2023-04-21T22:58:56.070Z,99.90
2023-04-21T23:01:23.308Z,99.90
2023-04-21T23:03:50.820Z,99.90
2023-04-21T23:06:17.950Z,99.90
2023-04-21T23:08:45.444Z,99.90
2023-04-21T23:11:12.991Z,99.90
2023-04-21T23:13:40.607Z,99.90
2023-04-21T23:16:07.755Z,99.90
2023-04-21T23:18:35.929Z,99.90
2023-04-21T23:21:03.097Z,99.90
2023-04-21T23:23:30.444Z,99.90
2023-04-21T23:25:57.488Z,99.90
2023-04-21T23:28:24.798Z,99.90
2023-04-21T23:30:51.935Z,99.90
2023-04-21T23:33:19.325Z,99.90
2023-04-21T23:35:46.403Z,99.90
2023-04-21T23:38:13.907Z,99.90
2023-04-21T23:40:41.336Z,99.90
2023-04-21T23:43:08.985Z,99.90
2023-04-21T23:45:36.397Z,99.90
2023-04-21T23:48:03.861Z,99.90
2023-04-21T23:50:31.079Z,99.90
2023-04-21T23:52:58.412Z,99.90
2023-04-21T23:55:25.393Z,99.90
2023-04-21T23:57:52.740Z,99.90
